METAR / TAF

Buochs LSZC 242250Z AUTO 22004KT 9999 NCD 17/15 Q1014

TAF LSZC 241905Z 2419/2424 CNL


Alpnach AFB LSMA 242250Z AUTO VRB01KT 9999NDV FEW120 17/16 Q1014

TAF LSMA 241625Z 2417/2523 05008KT 9999 SCT060 BECMG 2418/2421 CAVOK BECMG 2506/2508 9999 FEW050 TEMPO 2513/2523 SHRA FEW040TCU PROB40 TEMPO 2514/2521 05012KT TSRA SCT030CB


Emmen AFB LSME 242250Z AUTO VRB02KT 9999NDV NCD 18/15 Q1014

TAF LSME 241625Z 2417/2523 05008KT 9999 FEW060 BECMG 2418/2421 CAVOK BECMG 2507/2510 9999 FEW050 PROB40 TEMPO 2515/2521 SHRA FEW040TCU PROB30 TEMPO 2515/2521 14012KT TSRA SCT030CB


Bern LSZB 242250Z AUTO VRB03KT CAVOK 17/14 Q1014

TAF LSZB 242105Z 2421/2424 CNL


Grenchen LSZG 242250Z AUTO 07003KT CAVOK 17/14 Q1014

TAF LSZG 241905Z 2419/2424 CNL


Zurich LSZH 242250Z AUTO 29004KT CAVOK 18/13 Q1015 NOSIG

TAF LSZH 242025Z 2421/2603 02004KT CAVOK TX26/2514Z TN14/2504Z BECMG 2506/2508 05008KT 9999 SCT020 PROB40 TEMPO 2514/2520 FEW050TCU PROB30 TEMPO 2516/2519 16010KT FEW045CB BECMG 2518/2521 VRB02KT PROB30 TEMPO 2600/2603 SHRA FEW040TCU


Bale LFSB 242130Z AUTO 32003KT 290V360 CAVOK 19/16 Q1014 NOSIG

TAF LFSB 241700Z 2418/2518 VRB02KT CAVOK BECMG 2506/2509 36008KT PROB30 TEMPO 2513/2518 FEW040TCU


Les Eplatures LSGC 242250Z AUTO 03004KT 350V050 CAVOK 15/12 Q1016

TAF LSGC 241905Z 2419/2424 CNL


Geneva LSGG 242250Z AUTO 30003KT CAVOK 19/15 Q1013 NOSIG

TAF LSGG 242025Z 2421/2603 VRB02KT CAVOK TX27/2515Z TN15/2504Z BECMG 2508/2510 04008KT 9999 SCT050 PROB40 TEMPO 2514/2519 16015G25KT TSRA SCT040CB BECMG 2519/2521 VRB02KT


Sion LSGS 242250Z AUTO VRB01KT CAVOK 17/15 Q1014

TAF LSGS 241905Z 2419/2424 CNL


Payerne AFB LSMP 242250Z AUTO VRB02KT 9999NDV NCD 18/14 Q1014

TAF LSMP 241625Z 2417/2523 05012KT CAVOK BECMG 2419/2421 VRB02KT BECMG 2509/2512 9999 SCT050 PROB30 TEMPO 2515/2518 TSRA FEW040CB


Lugano LSZA 242250Z AUTO VRB01KT 9999 BKN100 17/16 Q1015

TAF LSZA 241905Z 2419/2424 CNL


Locarno LSZL 242250Z AUTO 00000KT 9999NDV FEW110 16/15 Q1015

TAF LSZL 241725Z 2418/2503 27004KT 9999 FEW100 BKN120 PROB30 TEMPO 2418/2503 SHRA FEW060TCU


St. Gallen LSZR 242250Z AUTO 26003KT CAVOK 18/16 Q1014

TAF LSZR 241905Z 2419/2424 CNL


Samedan LSZS 242250Z AUTO 17001KT 9999 FEW085 07/07 Q1020

TAF LSZS 241905Z 2419/2424 CNL

Radar

Föhn diagram

From an air pressure difference of approx. 4 hPa (dashed line) between the northern and southern Alps, Föhn can occur. The higher the pressure difference, the more violent the Föhn!

Forecast

Privacy Settings
We use cookies to enhance your experience while using our website. If you are using our Services via a browser you can restrict, block or remove cookies through your web browser settings. We also use content and scripts from third parties that may use tracking technologies. You can selectively provide your consent below to allow such third party embeds. For complete information about the cookies we use, data we collect and how we process them, please check our Privacy Policy
Youtube
Consent to display content from - Youtube
Vimeo
Consent to display content from - Vimeo
Google Maps
Consent to display content from - Google